createdAt,value
2019-01-10T00:00:26.678Z,101144.75
2019-01-10T00:05:22.668Z,101143.41
2019-01-10T00:10:18.565Z,101139.62
2019-01-10T00:15:16.561Z,101144.94
2019-01-10T00:20:14.355Z,101145.29
2019-01-10T00:25:12.232Z,101156.05
2019-01-10T00:30:18.529Z,101155.39
2019-01-10T00:35:14.518Z,101158.72
2019-01-10T00:40:15.020Z,101166.89
2019-01-10T00:45:14.222Z,101155.25
2019-01-10T00:50:13.024Z,101159.25
2019-01-10T00:55:09.153Z,101157.57
2019-01-10T01:00:14.412Z,101164.23
2019-01-10T01:05:12.016Z,101163.55
2019-01-10T01:10:17.184Z,101171.93
2019-01-10T01:15:15.286Z,101178.90
2019-01-10T01:20:14.782Z,101185.83
2019-01-10T01:25:11.580Z,101196.19
2019-01-10T01:30:10.803Z,101211.61
2019-01-10T01:35:06.999Z,101217.50
2019-01-10T01:40:09.249Z,101224.33
2019-01-10T01:45:07.652Z,101231.41
2019-01-10T01:50:07.361Z,101228.46
2019-01-10T01:55:03.893Z,101223.37
2019-01-10T01:59:59.826Z,101236.45
2019-01-10T02:04:55.814Z,101246.23
2019-01-10T02:09:51.843Z,101249.88
2019-01-10T02:14:47.735Z,101255.05
2019-01-10T02:19:44.302Z,101260.35
2019-01-10T02:24:40.185Z,101264.45
2019-01-10T02:29:36.772Z,101269.05
2019-01-10T02:34:33.327Z,101272.33
2019-01-10T02:39:29.952Z,101281.73
2019-01-10T02:44:26.570Z,101280.20
2019-01-10T02:49:23.344Z,101288.32
2019-01-10T02:54:19.280Z,101285.73
2019-01-10T02:59:15.179Z,101287.59
2019-01-10T03:04:11.281Z,101292.89
2019-01-10T03:09:07.890Z,101294.87
2019-01-10T03:14:03.789Z,101287.95
2019-01-10T03:19:00.997Z,101310.52
2019-01-10T03:23:56.932Z,101300.89
2019-01-10T03:28:52.825Z,101299.13
2019-01-10T03:33:48.726Z,101296.91
2019-01-10T03:38:44.633Z,101295.38
2019-01-10T03:43:46.784Z,101296.92
2019-01-10T03:48:38.351Z,101297.76
2019-01-10T03:53:34.249Z,101300.91
2019-01-10T03:58:30.155Z,101303.14
2019-01-10T04:03:26.180Z,101303.38
2019-01-10T04:08:22.085Z,101305.30
2019-01-10T04:13:18.102Z,101314.84
2019-01-10T04:18:14.001Z,101320.23
2019-01-10T04:23:09.978Z,101320.83
2019-01-10T04:28:05.883Z,101313.98
2019-01-10T04:33:01.782Z,101316.15
2019-01-10T04:37:57.690Z,101321.19
2019-01-10T04:42:53.717Z,101314.13
2019-01-10T04:47:49.628Z,101322.63
2019-01-10T04:52:45.656Z,101334.27
2019-01-10T04:57:41.593Z,101320.23
2019-01-10T05:02:37.486Z,101315.04
2019-01-10T05:07:33.398Z,101311.40
2019-01-10T05:12:29.285Z,101312.68
2019-01-10T05:17:25.214Z,101313.49
2019-01-10T05:22:21.225Z,101320.67
2019-01-10T05:27:17.140Z,101316.58
2019-01-10T05:32:13.045Z,101321.27
2019-01-10T05:37:08.962Z,101322.23
2019-01-10T05:42:04.879Z,101322.78
2019-01-10T05:47:00.774Z,101327.41
2019-01-10T05:51:56.675Z,101336.78
2019-01-10T05:56:52.603Z,101334.66
2019-01-10T06:01:48.570Z,101335.47
2019-01-10T06:06:44.468Z,101337.75
2019-01-10T06:11:40.367Z,101347.86
2019-01-10T06:16:36.282Z,101348.30
2019-01-10T06:21:32.215Z,101346.88
2019-01-10T06:26:29.031Z,101355.69
2019-01-10T06:31:24.946Z,101366.52
2019-01-10T06:36:20.847Z,101367.81
2019-01-10T06:41:17.005Z,101378.89
2019-01-10T06:46:13.051Z,101372.76
2019-01-10T06:51:08.967Z,101387.36
2019-01-10T06:56:05.026Z,101385.70
2019-01-10T07:01:00.922Z,101382.18
2019-01-10T07:05:56.821Z,101382.55
2019-01-10T07:10:52.718Z,101386.20
2019-01-10T07:15:48.649Z,101394.83
2019-01-10T07:20:44.593Z,101406.23
2019-01-10T07:25:40.491Z,101407.78
2019-01-10T07:30:36.532Z,101408.23
2019-01-10T07:35:32.432Z,101415.20
2019-01-10T07:40:28.365Z,101415.68
2019-01-10T07:45:24.373Z,101429.80
2019-01-10T07:50:28.712Z,101433.81
2019-01-10T07:55:24.623Z,101430.45
2019-01-10T08:00:20.619Z,101439.84
2019-01-10T08:05:16.618Z,101442.68
2019-01-10T08:10:14.933Z,101447.05
2019-01-10T08:15:14.565Z,101450.22
2019-01-10T08:20:10.757Z,101457.80
2019-01-10T08:25:08.063Z,101461.33
2019-01-10T08:30:07.789Z,101458.83
2019-01-10T08:35:05.101Z,101459.06
2019-01-10T08:40:01.034Z,101467.52
2019-01-10T08:44:56.949Z,101467.20
2019-01-10T08:49:53.580Z,101474.02
2019-01-10T08:54:51.753Z,101478.14
2019-01-10T08:59:47.371Z,101472.03
2019-01-10T09:04:43.281Z,101476.04
2019-01-10T09:09:39.212Z,101477.34
2019-01-10T09:14:35.174Z,101478.30
2019-01-10T09:19:31.750Z,101484.31
2019-01-10T09:24:27.609Z,101487.70
2019-01-10T09:29:23.527Z,101495.03
2019-01-10T09:34:24.561Z,101502.56
2019-01-10T09:39:17.245Z,101506.92
2019-01-10T09:44:13.154Z,101511.77
2019-01-10T09:49:09.933Z,101519.06
2019-01-10T09:54:06.106Z,101525.08
2019-01-10T09:59:02.045Z,101523.81
2019-01-10T10:03:58.033Z,101517.89
2019-01-10T10:08:53.978Z,101524.05
2019-01-10T10:13:49.867Z,101518.48
2019-01-10T10:18:47.746Z,101519.91
2019-01-10T10:23:43.750Z,101516.86
2019-01-10T10:28:39.683Z,101528.52
2019-01-10T10:33:35.594Z,101524.66
2019-01-10T10:38:31.491Z,101518.27
2019-01-10T10:43:27.448Z,101527.27
2019-01-10T10:48:23.404Z,101527.38
2019-01-10T10:53:20.136Z,101532.65
2019-01-10T10:58:17.048Z,101525.56
2019-01-10T11:03:13.063Z,101527.91
2019-01-10T11:08:08.995Z,101527.51
2019-01-10T11:13:04.985Z,101515.45
2019-01-10T11:18:02.160Z,101524.09
2019-01-10T11:22:59.033Z,101519.04
2019-01-10T11:27:55.977Z,101519.85
2019-01-10T11:32:53.766Z,101510.79
2019-01-10T11:37:49.907Z,101503.07
2019-01-10T11:42:46.114Z,101500.58
2019-01-10T11:47:42.006Z,101493.36
2019-01-10T11:52:37.927Z,101499.05
2019-01-10T11:57:33.838Z,101500.31
2019-01-10T12:02:36.293Z,101494.88
2019-01-10T12:07:28.043Z,101493.83
2019-01-10T12:12:23.945Z,101494.30
2019-01-10T12:17:19.850Z,101483.49
2019-01-10T12:22:15.829Z,101470.03
2019-01-10T12:27:11.722Z,101475.41
2019-01-10T12:32:07.820Z,101473.64
2019-01-10T12:37:03.817Z,101461.98
2019-01-10T12:41:59.714Z,101466.00
2019-01-10T12:46:55.621Z,101467.73
2019-01-10T12:51:51.513Z,101470.10
2019-01-10T12:56:47.447Z,101460.23
2019-01-10T13:01:43.657Z,101460.58
2019-01-10T13:06:42.605Z,101465.52
2019-01-10T13:11:42.003Z,101462.30
2019-01-10T13:16:46.772Z,101467.73
2019-01-10T13:21:43.269Z,101469.09
2019-01-10T13:26:42.413Z,101471.44
2019-01-10T13:31:44.363Z,101476.80
2019-01-10T13:36:44.359Z,101482.41
2019-01-10T13:41:43.007Z,101480.73
2019-01-10T13:46:41.239Z,101477.47
2019-01-10T13:51:38.211Z,101480.91
2019-01-10T13:56:36.326Z,101478.74
2019-01-10T14:01:34.050Z,101477.31
2019-01-10T14:06:32.594Z,101474.80
2019-01-10T14:11:30.991Z,101461.95
2019-01-10T14:16:40.327Z,101455.00
2019-01-10T14:21:37.782Z,101457.37
2019-01-10T14:26:33.687Z,101458.80
2019-01-10T14:31:38.130Z,101461.80
2019-01-10T14:36:37.819Z,101458.16
2019-01-10T14:41:37.083Z,101456.75
2019-01-10T14:46:36.111Z,101462.41
2019-01-10T14:51:40.280Z,101459.69
2019-01-10T14:56:37.098Z,101467.35
2019-01-10T15:06:56.222Z,101474.92
2019-01-10T15:11:53.121Z,101476.00
2019-01-10T15:16:50.932Z,101479.39
2019-01-10T15:27:06.352Z,101493.73
2019-01-10T15:32:02.281Z,101494.31
2019-01-10T15:36:58.335Z,101489.10
2019-01-10T15:41:54.342Z,101483.09
2019-01-10T15:46:50.242Z,101479.00
2019-01-10T15:51:46.163Z,101471.66
2019-01-10T15:56:42.635Z,101480.41
2019-01-10T16:01:39.691Z,101481.93
2019-01-10T16:06:35.810Z,101480.87
2019-01-10T16:11:32.805Z,101474.50
2019-01-10T16:16:28.904Z,101489.12
2019-01-10T16:21:25.114Z,101486.77
2019-01-10T16:26:21.051Z,101482.40
2019-01-10T16:31:17.756Z,101488.41
2019-01-10T16:36:13.876Z,101486.90
2019-01-10T16:41:09.813Z,101488.78
2019-01-10T16:46:05.830Z,101489.59
2019-01-10T16:51:01.737Z,101492.31
2019-01-10T16:55:57.667Z,101494.67
2019-01-10T17:00:53.880Z,101494.22
2019-01-10T17:05:49.780Z,101496.19
2019-01-10T17:10:45.698Z,101491.12
2019-01-10T17:15:41.596Z,101489.95
2019-01-10T17:20:37.509Z,101495.26
2019-01-10T17:25:36.991Z,101492.41
2019-01-10T17:30:33.010Z,101493.25
2019-01-10T17:35:29.918Z,101483.56
2019-01-10T17:40:26.232Z,101481.34
2019-01-10T17:45:24.631Z,101487.36
2019-01-10T17:50:20.532Z,101489.11
2019-01-10T17:55:16.458Z,101494.41
2019-01-10T18:00:36.906Z,101493.09
2019-01-10T18:05:32.772Z,101498.62
2019-01-10T18:10:28.849Z,101494.66
2019-01-10T18:15:24.891Z,101492.59
2019-01-10T18:20:24.199Z,101493.22
2019-01-10T18:25:20.102Z,101492.55
2019-01-10T18:30:21.060Z,101498.44
2019-01-10T18:35:17.305Z,101501.86
2019-01-10T18:40:15.284Z,101491.95
2019-01-10T18:45:15.532Z,101492.18
2019-01-10T18:50:15.863Z,101486.38
2019-01-10T18:55:12.309Z,101492.89
2019-01-10T19:00:33.188Z,101479.67
2019-01-10T19:05:29.403Z,101483.22
2019-01-10T19:10:25.371Z,101476.41
2019-01-10T19:15:22.156Z,101482.05
2019-01-10T19:20:21.259Z,101478.16
2019-01-10T19:25:17.254Z,101479.82
2019-01-10T19:30:16.385Z,101482.98
2019-01-10T19:35:12.400Z,101488.09
2019-01-10T19:40:12.123Z,101486.42
2019-01-10T19:45:10.828Z,101486.89
2019-01-10T19:50:15.771Z,101487.83
2019-01-10T19:55:13.553Z,101488.30
2019-01-10T20:00:27.267Z,101486.08
2019-01-10T20:05:23.266Z,101495.16
2019-01-10T20:10:19.203Z,101493.14
2019-01-10T20:15:15.217Z,101490.77
2019-01-10T20:20:26.161Z,101483.00
2019-01-10T20:25:22.882Z,101488.80
2019-01-10T20:30:18.798Z,101501.16
2019-01-10T20:35:15.092Z,101497.98
2019-01-10T20:40:13.099Z,101501.77
2019-01-10T20:45:09.394Z,101507.28
2019-01-10T20:50:13.423Z,101509.88
2019-01-10T20:55:11.546Z,101503.03
2019-01-10T21:00:17.166Z,101498.22
2019-01-10T21:05:13.274Z,101496.67
2019-01-10T21:10:12.171Z,101498.09
2019-01-10T21:15:13.911Z,101497.28
2019-01-10T21:20:10.514Z,101495.84
2019-01-10T21:25:09.015Z,101493.83
2019-01-10T21:30:08.344Z,101489.61
2019-01-10T21:35:05.588Z,101483.22
2019-01-10T21:40:03.702Z,101478.98
2019-01-10T21:44:59.703Z,101473.22
2019-01-10T21:49:56.312Z,101461.20
2019-01-10T21:54:52.179Z,101461.20
2019-01-10T21:59:48.129Z,101466.97
2019-01-10T22:04:44.095Z,101475.47
2019-01-10T22:09:40.095Z,101467.33
2019-01-10T22:14:35.993Z,101472.03
2019-01-10T22:19:32.654Z,101466.36
2019-01-10T22:24:28.517Z,101466.39
2019-01-10T22:29:24.444Z,101464.13
2019-01-10T22:34:20.333Z,101464.13
2019-01-10T22:39:16.234Z,101461.33
2019-01-10T22:44:12.235Z,101458.13
2019-01-10T22:49:09.408Z,101461.33
2019-01-10T22:54:05.428Z,101460.84
2019-01-10T22:59:01.332Z,101455.55
2019-01-10T23:03:57.389Z,101456.72
2019-01-10T23:08:53.291Z,101458.25
2019-01-10T23:13:54.087Z,101459.19
2019-01-10T23:18:54.243Z,101453.52
2019-01-10T23:23:48.419Z,101452.34
2019-01-10T23:28:44.311Z,101443.63
2019-01-10T23:33:40.250Z,101440.56
2019-01-10T23:38:36.144Z,101429.50
2019-01-10T23:43:32.041Z,101422.41
2019-01-10T23:48:28.040Z,101424.77
2019-01-10T23:53:24.139Z,101414.03
2019-01-10T23:58:20.092Z,101415.00
